Nouasseur, Morocco
Current Conditions -  °F | °C
As of 1:00 AM on Thursday 27 Nov 2014 (Local Time) from GMMN Reporting Station
Broken Clouds Broken Clouds  
Wind Chill: 15°   Ceiling: 1600
Heat Index: 15°   Visibility: 6mi
Dew Point: 13°   Wind: 18mph
Humidity: 88%   Direction: 230°SW
Pressure: 29.8"   Gusts: NA
Location:  33.37°N, 7.58°W
Report Text: GMMN 270000Z 23016KT 9999 BKN016TCU SCT100 15/13 Q1009 NOSIG
Loading
Personal Weather Stations






























Interactive Weather Map New forecast layout! Learn more

10-Day Weather Forecast

Advertisements
Track Severe Weather on mobile